createdAt,value
2023-01-19T00:04:12.453Z,97.57
2023-01-19T00:09:16.746Z,97.47
2023-01-19T00:14:21.084Z,97.66
2023-01-19T00:19:22.942Z,97.89
2023-01-19T00:24:25.537Z,97.77
2023-01-19T00:29:30.930Z,97.52
2023-01-19T00:34:39.618Z,97.03
2023-01-19T00:39:41.404Z,97.80
2023-01-19T00:44:42.997Z,97.44
2023-01-19T00:49:44.680Z,97.32
2023-01-19T00:54:46.423Z,97.78
2023-01-19T00:59:48.154Z,98.26
2023-01-19T01:04:54.878Z,98.61
2023-01-19T01:09:56.764Z,98.66
2023-01-19T01:14:58.526Z,98.48
2023-01-19T01:20:00.434Z,98.38
2023-01-19T01:25:02.125Z,98.29
2023-01-19T01:30:04.434Z,98.11
2023-01-19T01:35:09.074Z,99.33
2023-01-19T01:40:14.234Z,99.49
2023-01-19T01:45:32.950Z,99.48
2023-01-19T01:51:01.469Z,99.53
2023-01-19T01:56:07.531Z,99.52
2023-01-19T02:01:29.224Z,99.02
2023-01-19T02:06:31.164Z,98.61
2023-01-19T02:11:54.211Z,99.06
2023-01-19T02:16:56.181Z,99.03
2023-01-19T02:22:07.898Z,99.11
2023-01-19T02:27:11.762Z,98.78
2023-01-19T02:32:13.524Z,98.67
2023-01-19T02:37:17.184Z,98.57
2023-01-19T02:42:25.573Z,97.84
2023-01-19T02:47:27.249Z,97.82
2023-01-19T02:52:29.203Z,97.68
2023-01-19T02:57:43.651Z,98.03
2023-01-19T03:03:09.189Z,98.21
2023-01-19T03:08:22.763Z,98.84
2023-01-19T03:13:49.501Z,99.51
2023-01-19T03:18:55.688Z,99.22
2023-01-19T03:24:03.186Z,99.75
2023-01-19T03:29:07.241Z,99.79
2023-01-19T03:34:13.838Z,99.15
2023-01-19T03:39:21.539Z,98.95
2023-01-19T03:44:26.808Z,98.42
2023-01-19T03:49:31.449Z,98.31
2023-01-19T03:54:33.235Z,98.37
2023-01-19T03:59:35.146Z,98.57
2023-01-19T04:04:36.979Z,99.06
2023-01-19T04:09:38.822Z,99.09
2023-01-19T04:14:40.508Z,99.12
2023-01-19T04:19:43.267Z,99.28
2023-01-19T04:24:44.928Z,99.11
2023-01-19T04:29:46.703Z,98.89
2023-01-19T04:34:48.405Z,98.76
2023-01-19T04:39:50.090Z,99.71
2023-01-19T04:44:52.539Z,99.42
2023-01-19T04:49:54.194Z,99.06
2023-01-19T04:54:56.287Z,99.14
2023-01-19T04:59:58.674Z,99.14
2023-01-19T05:05:00.713Z,99.14
2023-01-19T05:10:02.446Z,99.32
2023-01-19T05:15:04.663Z,99.50
2023-01-19T05:20:07.093Z,99.24
2023-01-19T05:25:09.474Z,98.99
2023-01-19T05:30:12.992Z,99.17
2023-01-19T05:35:16.684Z,99.75
2023-01-19T05:40:19.904Z,100.00
2023-01-19T05:45:21.567Z,100.00
2023-01-19T05:50:23.305Z,100.00
2023-01-19T05:55:24.960Z,100.00
2023-01-19T06:00:27.434Z,100.00
2023-01-19T06:05:29.731Z,100.00
2023-01-19T06:10:31.485Z,100.00
2023-01-19T06:15:33.439Z,100.00
2023-01-19T06:20:35.756Z,100.00
2023-01-19T06:25:37.440Z,100.00
2023-01-19T06:30:39.301Z,100.00
2023-01-19T06:35:42.966Z,100.00
2023-01-19T06:40:45.774Z,100.00
2023-01-19T06:45:47.686Z,100.00
2023-01-19T06:50:49.848Z,100.00
2023-01-19T06:55:51.569Z,100.00
2023-01-19T07:00:54.011Z,100.00
2023-01-19T07:05:56.935Z,100.00
2023-01-19T07:11:25.651Z,100.00
2023-01-19T07:16:21.881Z,100.00
2023-01-19T07:21:23.773Z,100.00
2023-01-19T07:26:25.950Z,100.00
2023-01-19T07:31:27.696Z,100.00
2023-01-19T07:36:29.561Z,100.00
2023-01-19T07:41:31.293Z,100.00
2023-01-19T07:46:33.032Z,100.00
2023-01-19T07:51:35.236Z,100.00
2023-01-19T07:56:36.929Z,100.00
2023-01-19T08:01:39.217Z,100.00
2023-01-19T08:06:44.754Z,100.00
2023-01-19T08:11:46.547Z,100.00
2023-01-19T08:16:48.867Z,100.00
2023-01-19T08:21:50.539Z,99.20
2023-01-19T08:27:03.584Z,99.04
2023-01-19T08:32:06.768Z,98.65
2023-01-19T08:37:08.631Z,98.61
2023-01-19T08:42:10.340Z,98.05
2023-01-19T08:47:12.132Z,96.51
2023-01-19T08:52:13.860Z,96.73
2023-01-19T08:57:16.267Z,96.15
2023-01-19T09:02:18.203Z,96.48
2023-01-19T09:07:20.105Z,96.67
2023-01-19T09:12:21.943Z,96.72
2023-01-19T09:17:23.724Z,97.03
2023-01-19T09:22:25.453Z,96.73
2023-01-19T09:27:27.198Z,96.35
2023-01-19T09:32:28.968Z,96.67
2023-01-19T09:37:30.683Z,95.95
2023-01-19T09:42:35.187Z,95.77
2023-01-19T09:47:38.864Z,94.95
2023-01-19T09:52:43.097Z,94.70
2023-01-19T09:57:45.229Z,94.47
2023-01-19T10:02:52.968Z,94.28
2023-01-19T10:07:54.933Z,94.42
2023-01-19T10:12:59.871Z,94.89
2023-01-19T10:20:23.973Z,95.68
2023-01-19T10:25:27.436Z,96.22
2023-01-19T10:30:30.242Z,96.44
2023-01-19T10:35:32.134Z,96.69
2023-01-19T10:40:57.138Z,96.79
2023-01-19T10:45:58.947Z,96.47
2023-01-19T10:51:04.959Z,96.62
2023-01-19T10:56:32.146Z,96.71
2023-01-19T11:01:37.187Z,96.67
2023-01-19T11:06:39.227Z,95.91
2023-01-19T11:11:59.033Z,94.06
2023-01-19T11:17:00.781Z,94.10
2023-01-19T11:22:30.245Z,93.99
2023-01-19T11:27:35.976Z,93.26
2023-01-19T11:32:37.877Z,90.90
2023-01-19T11:37:42.852Z,89.87
2023-01-19T11:42:44.927Z,88.67
2023-01-19T11:47:52.542Z,89.32
2023-01-19T11:53:18.711Z,88.56
2023-01-19T11:58:20.825Z,86.45
2023-01-19T12:03:31.366Z,86.57
2023-01-19T12:08:42.360Z,87.44
2023-01-19T12:13:46.119Z,88.19
2023-01-19T12:18:55.735Z,88.63
2023-01-19T12:24:27.227Z,88.83
2023-01-19T12:29:33.192Z,89.20
2023-01-19T12:34:48.193Z,88.39
2023-01-19T12:39:49.893Z,88.57
2023-01-19T12:45:25.599Z,88.97
2023-01-19T12:50:32.256Z,89.60
2023-01-19T12:55:38.995Z,88.71
2023-01-19T13:00:44.809Z,87.78
2023-01-19T13:05:49.030Z,87.96
2023-01-19T13:11:05.485Z,88.22
2023-01-19T13:16:19.702Z,88.08
2023-01-19T13:21:45.629Z,88.19
2023-01-19T13:26:50.472Z,88.54
2023-01-19T13:32:02.375Z,88.59
2023-01-19T13:37:06.185Z,89.09
2023-01-19T13:42:15.982Z,88.49
2023-01-19T13:47:33.419Z,88.98
2023-01-19T13:52:35.160Z,88.81
2023-01-19T13:57:45.481Z,89.16
2023-01-19T14:02:53.694Z,88.64
2023-01-19T14:08:08.933Z,88.24
2023-01-19T14:13:22.782Z,88.38
2023-01-19T14:18:30.548Z,88.12
2023-01-19T14:23:50.949Z,88.14
2023-01-19T14:28:53.304Z,87.92
2023-01-19T14:33:55.877Z,87.66
2023-01-19T14:39:00.198Z,87.87
2023-01-19T14:44:03.141Z,87.73
2023-01-19T14:49:06.562Z,87.15
2023-01-19T14:54:17.447Z,87.21
2023-01-19T14:59:19.338Z,87.80
2023-01-19T15:04:21.317Z,87.25
2023-01-19T15:09:23.613Z,87.46
2023-01-19T15:14:27.895Z,87.46
2023-01-19T15:19:29.626Z,87.17
2023-01-19T15:24:31.198Z,87.59
2023-01-19T15:29:36.515Z,88.32
2023-01-19T15:34:38.222Z,88.49
2023-01-19T15:39:39.962Z,88.86
2023-01-19T15:44:41.690Z,89.49
2023-01-19T15:49:45.423Z,90.00
2023-01-19T15:54:47.123Z,90.74
2023-01-19T15:59:48.933Z,91.39
2023-01-19T16:04:50.657Z,91.15
2023-01-19T16:09:52.379Z,90.66
2023-01-19T16:14:54.087Z,90.57
2023-01-19T16:19:55.917Z,90.66
2023-01-19T16:24:58.039Z,90.33
2023-01-19T16:30:05.164Z,90.59
2023-01-19T16:35:06.990Z,91.64
2023-01-19T16:40:11.756Z,92.60
2023-01-19T16:45:15.800Z,93.84
2023-01-19T16:50:21.033Z,95.02
2023-01-19T16:55:22.745Z,95.28
2023-01-19T17:00:24.647Z,94.56
2023-01-19T17:05:27.553Z,94.40
2023-01-19T17:10:29.277Z,93.86
2023-01-19T17:15:31.497Z,93.11
2023-01-19T17:20:34.055Z,93.16
2023-01-19T17:25:42.703Z,93.19
2023-01-19T17:30:44.622Z,92.58
2023-01-19T17:35:46.944Z,92.56
2023-01-19T17:40:48.746Z,93.25
2023-01-19T17:45:50.370Z,94.06
2023-01-19T17:50:54.251Z,94.13
2023-01-19T17:55:55.901Z,94.18
2023-01-19T18:00:58.333Z,94.11
2023-01-19T18:06:00.229Z,94.01
2023-01-19T18:11:03.008Z,94.09
2023-01-19T18:16:08.108Z,94.29
2023-01-19T18:21:12.634Z,94.38
2023-01-19T18:26:21.071Z,94.40
2023-01-19T18:31:27.080Z,94.28
2023-01-19T18:36:29.038Z,94.39
2023-01-19T18:41:35.654Z,94.74
2023-01-19T18:46:38.392Z,95.04
2023-01-19T18:51:41.706Z,95.05
2023-01-19T18:56:43.428Z,94.83
2023-01-19T19:01:45.403Z,94.99
2023-01-19T19:06:47.335Z,95.32
2023-01-19T19:11:49.077Z,95.25
2023-01-19T19:16:50.796Z,94.81
2023-01-19T19:21:53.907Z,94.39
2023-01-19T19:26:55.687Z,94.28
2023-01-19T19:31:57.389Z,94.74
2023-01-19T19:37:01.115Z,94.83
2023-01-19T19:42:03.042Z,94.64
2023-01-19T19:47:04.814Z,94.58
2023-01-19T19:52:09.208Z,94.91
2023-01-19T19:57:10.822Z,95.34
2023-01-19T20:02:12.909Z,95.97
2023-01-19T20:07:17.161Z,96.35
2023-01-19T20:12:19.830Z,96.97
2023-01-19T20:17:21.603Z,96.97
2023-01-19T20:22:23.476Z,97.40
2023-01-19T20:27:25.444Z,97.04
2023-01-19T20:32:27.407Z,96.70
2023-01-19T20:37:29.471Z,96.52
2023-01-19T20:42:31.444Z,96.56
2023-01-19T20:47:33.224Z,96.59
2023-01-19T20:52:36.058Z,96.11
2023-01-19T20:57:37.759Z,95.12
2023-01-19T21:02:39.637Z,94.70
2023-01-19T21:07:41.404Z,94.22
2023-01-19T21:12:44.141Z,94.33
2023-01-19T21:17:45.973Z,93.98
2023-01-19T21:22:47.945Z,93.72
2023-01-19T21:27:50.848Z,93.28
2023-01-19T21:32:52.789Z,93.32
2023-01-19T21:37:54.769Z,92.96
2023-01-19T21:42:56.690Z,93.26
2023-01-19T21:47:58.391Z,93.05
2023-01-19T21:53:00.235Z,92.58
2023-01-19T21:58:02.057Z,92.65
2023-01-19T22:03:04.836Z,92.87
2023-01-19T22:08:06.925Z,92.63
2023-01-19T22:13:09.462Z,92.00
2023-01-19T22:18:11.649Z,91.43
2023-01-19T22:23:23.903Z,91.36
2023-01-19T22:28:25.685Z,91.63
2023-01-19T22:33:28.124Z,91.68
2023-01-19T22:38:30.085Z,92.03
2023-01-19T22:43:31.770Z,91.34
2023-01-19T22:48:41.694Z,90.02
2023-01-19T22:53:43.664Z,89.78
2023-01-19T22:58:46.810Z,90.49
2023-01-19T23:03:49.333Z,90.08
2023-01-19T23:08:51.731Z,89.85
2023-01-19T23:13:58.009Z,89.84
2023-01-19T23:19:01.333Z,90.05
2023-01-19T23:24:05.181Z,89.55
2023-01-19T23:29:11.066Z,89.98
2023-01-19T23:34:13.412Z,90.25
2023-01-19T23:39:18.464Z,89.39
2023-01-19T23:44:20.318Z,88.96
2023-01-19T23:49:22.036Z,89.19
2023-01-19T23:54:23.801Z,89.01
2023-01-19T23:59:25.876Z,89.08
